Terminal Aerodrome Forecast
Issued by NWS

Home | Current Version | Previous Version | Text Only | Print | Product List | Glossary On
Versions: 1 2 3 4 5 6 7 8 9 10 11 12 13
000
FTUS43 KGLD 160524
TAFMCK
TAF
KMCK 160524Z 1606/1706 32007KT P6SM SKC
     FM162000 25005KT P6SM SKC
     FM162300 18004KT P6SM FEW030 FEW250=

USA.gov is the U.S. government's official web portal to all federal, state and local government web resources and services.